sensor_id;sensor_type;location;lat;lon;timestamp;temperature;humidity
52879;DHT22;38747;53.140;6.498;2024-02-15T00:02:22;10.80;99.90
52879;DHT22;38747;53.140;6.498;2024-02-15T00:04:48;10.80;99.90
52879;DHT22;38747;53.140;6.498;2024-02-15T00:07:14;10.90;99.90
52879;DHT22;38747;53.140;6.498;2024-02-15T00:09:39;10.70;99.90
52879;DHT22;38747;53.140;6.498;2024-02-15T00:12:05;10.80;99.90
52879;DHT22;38747;53.140;6.498;2024-02-15T00:14:31;10.80;99.90
52879;DHT22;38747;53.140;6.498;2024-02-15T00:16:57;10.80;99.90
52879;DHT22;38747;53.140;6.498;2024-02-15T00:19:23;10.70;99.90
52879;DHT22;38747;53.140;6.498;2024-02-15T00:21:50;10.80;99.90
52879;DHT22;38747;53.140;6.498;2024-02-15T00:24:16;10.80;99.90
52879;DHT22;38747;53.140;6.498;2024-02-15T00:26:42;10.70;99.90
52879;DHT22;38747;53.140;6.498;2024-02-15T00:29:08;10.70;99.90
52879;DHT22;38747;53.140;6.498;2024-02-15T00:31:34;10.80;99.90
52879;DHT22;38747;53.140;6.498;2024-02-15T00:34:01;10.70;99.90
52879;DHT22;38747;53.140;6.498;2024-02-15T00:36:28;10.70;99.90
52879;DHT22;38747;53.140;6.498;2024-02-15T00:38:54;10.70;99.90
52879;DHT22;38747;53.140;6.498;2024-02-15T00:41:19;10.80;99.90
52879;DHT22;38747;53.140;6.498;2024-02-15T00:43:50;10.80;99.90
52879;DHT22;38747;53.140;6.498;2024-02-15T00:46:16;10.80;99.90
52879;DHT22;38747;53.140;6.498;2024-02-15T00:48:41;10.70;99.90
52879;DHT22;38747;53.140;6.498;2024-02-15T00:51:07;10.80;99.90
52879;DHT22;38747;53.140;6.498;2024-02-15T00:53:33;10.70;99.90
52879;DHT22;38747;53.140;6.498;2024-02-15T00:55:59;10.80;99.90
52879;DHT22;38747;53.140;6.498;2024-02-15T00:58:26;10.80;99.90
52879;DHT22;38747;53.140;6.498;2024-02-15T01:00:53;10.90;99.90
52879;DHT22;38747;53.140;6.498;2024-02-15T01:03:21;10.90;99.90
52879;DHT22;38747;53.140;6.498;2024-02-15T01:05:48;10.70;99.90
52879;DHT22;38747;53.140;6.498;2024-02-15T01:08:16;10.80;99.90
52879;DHT22;38747;53.140;6.498;2024-02-15T01:10:42;10.80;99.90
52879;DHT22;38747;53.140;6.498;2024-02-15T01:13:08;10.90;99.90
52879;DHT22;38747;53.140;6.498;2024-02-15T01:15:34;10.80;99.90
52879;DHT22;38747;53.140;6.498;2024-02-15T01:18:03;10.90;99.90
52879;DHT22;38747;53.140;6.498;2024-02-15T01:20:28;10.90;99.90
52879;DHT22;38747;53.140;6.498;2024-02-15T01:22:54;10.80;99.90
52879;DHT22;38747;53.140;6.498;2024-02-15T01:25:20;10.80;99.90
52879;DHT22;38747;53.140;6.498;2024-02-15T01:27:46;10.80;99.90
52879;DHT22;38747;53.140;6.498;2024-02-15T01:30:13;10.80;99.90
52879;DHT22;38747;53.140;6.498;2024-02-15T01:32:39;10.80;99.90
52879;DHT22;38747;53.140;6.498;2024-02-15T01:35:07;10.90;99.90
52879;DHT22;38747;53.140;6.498;2024-02-15T01:37:33;10.80;99.90
52879;DHT22;38747;53.140;6.498;2024-02-15T01:39:59;10.80;99.90
52879;DHT22;38747;53.140;6.498;2024-02-15T01:42:24;10.80;99.90
52879;DHT22;38747;53.140;6.498;2024-02-15T01:44:50;10.90;99.90
52879;DHT22;38747;53.140;6.498;2024-02-15T01:47:17;10.80;99.90
52879;DHT22;38747;53.140;6.498;2024-02-15T01:49:44;10.80;99.90
52879;DHT22;38747;53.140;6.498;2024-02-15T01:52:11;10.80;99.90
52879;DHT22;38747;53.140;6.498;2024-02-15T01:54:37;10.80;99.90
52879;DHT22;38747;53.140;6.498;2024-02-15T01:57:04;10.80;99.90
52879;DHT22;38747;53.140;6.498;2024-02-15T01:59:30;10.90;99.90
52879;DHT22;38747;53.140;6.498;2024-02-15T02:01:56;10.80;99.90
52879;DHT22;38747;53.140;6.498;2024-02-15T02:04:22;10.80;99.90
52879;DHT22;38747;53.140;6.498;2024-02-15T02:06:48;10.80;99.90
52879;DHT22;38747;53.140;6.498;2024-02-15T02:09:13;10.90;99.90
52879;DHT22;38747;53.140;6.498;2024-02-15T02:11:41;10.80;99.90
52879;DHT22;38747;53.140;6.498;2024-02-15T02:14:06;10.90;99.90
52879;DHT22;38747;53.140;6.498;2024-02-15T02:16:32;10.90;99.90
52879;DHT22;38747;53.140;6.498;2024-02-15T02:18:59;10.80;99.90
52879;DHT22;38747;53.140;6.498;2024-02-15T02:21:25;10.80;99.90
52879;DHT22;38747;53.140;6.498;2024-02-15T02:24:04;10.90;99.90
52879;DHT22;38747;53.140;6.498;2024-02-15T02:26:33;10.90;99.90
52879;DHT22;38747;53.140;6.498;2024-02-15T02:29:00;10.90;99.90
52879;DHT22;38747;53.140;6.498;2024-02-15T02:31:28;10.80;99.90
52879;DHT22;38747;53.140;6.498;2024-02-15T02:33:54;10.90;99.90
52879;DHT22;38747;53.140;6.498;2024-02-15T02:36:20;10.80;99.90
52879;DHT22;38747;53.140;6.498;2024-02-15T02:38:46;10.90;99.90
52879;DHT22;38747;53.140;6.498;2024-02-15T02:41:15;10.80;99.90
52879;DHT22;38747;53.140;6.498;2024-02-15T02:43:41;10.90;99.90
52879;DHT22;38747;53.140;6.498;2024-02-15T02:46:10;10.90;99.90
52879;DHT22;38747;53.140;6.498;2024-02-15T02:48:36;10.90;99.90
52879;DHT22;38747;53.140;6.498;2024-02-15T02:51:02;10.90;99.90
52879;DHT22;38747;53.140;6.498;2024-02-15T02:53:28;10.90;99.90
52879;DHT22;38747;53.140;6.498;2024-02-15T02:55:55;10.90;99.90
52879;DHT22;38747;53.140;6.498;2024-02-15T02:58:22;10.90;99.90
52879;DHT22;38747;53.140;6.498;2024-02-15T03:00:48;10.80;99.90
52879;DHT22;38747;53.140;6.498;2024-02-15T03:03:15;10.90;99.90
52879;DHT22;38747;53.140;6.498;2024-02-15T03:05:41;10.80;99.90
52879;DHT22;38747;53.140;6.498;2024-02-15T03:08:08;10.90;99.90
52879;DHT22;38747;53.140;6.498;2024-02-15T03:10:34;10.80;99.90
52879;DHT22;38747;53.140;6.498;2024-02-15T03:13:00;11.00;99.90
52879;DHT22;38747;53.140;6.498;2024-02-15T03:15:25;10.80;99.90
52879;DHT22;38747;53.140;6.498;2024-02-15T03:17:51;10.80;99.90
52879;DHT22;38747;53.140;6.498;2024-02-15T03:20:17;10.80;99.90
52879;DHT22;38747;53.140;6.498;2024-02-15T03:22:55;10.80;99.90
52879;DHT22;38747;53.140;6.498;2024-02-15T03:25:21;10.80;99.90
52879;DHT22;38747;53.140;6.498;2024-02-15T03:27:50;10.80;99.90
52879;DHT22;38747;53.140;6.498;2024-02-15T03:30:27;10.80;99.90
52879;DHT22;38747;53.140;6.498;2024-02-15T03:32:54;10.90;99.90
52879;DHT22;38747;53.140;6.498;2024-02-15T03:35:21;10.90;99.90
52879;DHT22;38747;53.140;6.498;2024-02-15T03:37:48;10.90;99.90
52879;DHT22;38747;53.140;6.498;2024-02-15T03:40:16;10.80;99.90
52879;DHT22;38747;53.140;6.498;2024-02-15T03:42:42;10.90;99.90
52879;DHT22;38747;53.140;6.498;2024-02-15T03:45:08;10.80;99.90
52879;DHT22;38747;53.140;6.498;2024-02-15T03:47:35;10.80;99.90
52879;DHT22;38747;53.140;6.498;2024-02-15T03:50:08;10.90;99.90
52879;DHT22;38747;53.140;6.498;2024-02-15T03:52:35;10.80;99.90
52879;DHT22;38747;53.140;6.498;2024-02-15T03:55:00;10.90;99.90
52879;DHT22;38747;53.140;6.498;2024-02-15T03:57:30;10.90;99.90
52879;DHT22;38747;53.140;6.498;2024-02-15T03:59:56;10.90;99.90
52879;DHT22;38747;53.140;6.498;2024-02-15T04:02:23;10.90;99.90
52879;DHT22;38747;53.140;6.498;2024-02-15T04:04:55;10.90;99.90
52879;DHT22;38747;53.140;6.498;2024-02-15T04:07:22;10.90;99.90
52879;DHT22;38747;53.140;6.498;2024-02-15T04:09:48;10.90;99.90
52879;DHT22;38747;53.140;6.498;2024-02-15T04:12:14;10.90;99.90
52879;DHT22;38747;53.140;6.498;2024-02-15T04:14:40;10.80;99.90
52879;DHT22;38747;53.140;6.498;2024-02-15T04:17:07;10.80;99.90
52879;DHT22;38747;53.140;6.498;2024-02-15T04:19:32;11.00;99.90
52879;DHT22;38747;53.140;6.498;2024-02-15T04:21:58;10.90;99.90
52879;DHT22;38747;53.140;6.498;2024-02-15T04:24:26;10.90;99.90
52879;DHT22;38747;53.140;6.498;2024-02-15T04:26:52;11.00;99.90
52879;DHT22;38747;53.140;6.498;2024-02-15T04:29:17;11.00;99.90
52879;DHT22;38747;53.140;6.498;2024-02-15T04:31:46;10.90;99.90
52879;DHT22;38747;53.140;6.498;2024-02-15T04:34:15;11.00;99.90
52879;DHT22;38747;53.140;6.498;2024-02-15T04:36:43;11.00;99.90
52879;DHT22;38747;53.140;6.498;2024-02-15T04:39:10;10.90;99.90
52879;DHT22;38747;53.140;6.498;2024-02-15T04:41:41;11.00;99.90
52879;DHT22;38747;53.140;6.498;2024-02-15T04:44:07;11.00;99.90
52879;DHT22;38747;53.140;6.498;2024-02-15T04:46:37;11.00;99.90
52879;DHT22;38747;53.140;6.498;2024-02-15T04:49:02;10.90;99.90
52879;DHT22;38747;53.140;6.498;2024-02-15T04:51:28;10.90;99.90
52879;DHT22;38747;53.140;6.498;2024-02-15T04:53:54;11.00;99.90
52879;DHT22;38747;53.140;6.498;2024-02-15T04:56:19;10.90;99.90
52879;DHT22;38747;53.140;6.498;2024-02-15T04:58:46;11.00;99.90
52879;DHT22;38747;53.140;6.498;2024-02-15T05:01:16;10.90;99.90
52879;DHT22;38747;53.140;6.498;2024-02-15T05:03:43;11.00;99.90
52879;DHT22;38747;53.140;6.498;2024-02-15T05:06:09;10.90;99.90
52879;DHT22;38747;53.140;6.498;2024-02-15T05:08:39;11.00;99.90
52879;DHT22;38747;53.140;6.498;2024-02-15T05:11:09;11.10;99.90
52879;DHT22;38747;53.140;6.498;2024-02-15T05:13:44;11.20;99.90
52879;DHT22;38747;53.140;6.498;2024-02-15T05:16:10;11.00;99.90
52879;DHT22;38747;53.140;6.498;2024-02-15T05:18:36;11.10;99.90
52879;DHT22;38747;53.140;6.498;2024-02-15T05:21:04;11.10;99.90
52879;DHT22;38747;53.140;6.498;2024-02-15T05:23:29;11.20;99.90
52879;DHT22;38747;53.140;6.498;2024-02-15T05:25:55;11.20;99.90
52879;DHT22;38747;53.140;6.498;2024-02-15T05:28:22;11.20;99.90
52879;DHT22;38747;53.140;6.498;2024-02-15T05:31:09;11.10;99.90
52879;DHT22;38747;53.140;6.498;2024-02-15T05:33:35;11.20;99.90
52879;DHT22;38747;53.140;6.498;2024-02-15T05:36:01;11.10;99.90
52879;DHT22;38747;53.140;6.498;2024-02-15T05:38:27;11.20;99.90
52879;DHT22;38747;53.140;6.498;2024-02-15T05:40:56;11.10;99.90
52879;DHT22;38747;53.140;6.498;2024-02-15T05:43:22;11.10;99.90
52879;DHT22;38747;53.140;6.498;2024-02-15T05:45:49;11.10;99.90
52879;DHT22;38747;53.140;6.498;2024-02-15T05:48:17;11.10;99.90
52879;DHT22;38747;53.140;6.498;2024-02-15T05:50:42;11.20;99.90
52879;DHT22;38747;53.140;6.498;2024-02-15T05:53:08;11.20;99.90
52879;DHT22;38747;53.140;6.498;2024-02-15T05:55:33;11.30;99.90
52879;DHT22;38747;53.140;6.498;2024-02-15T05:58:02;11.30;99.90
52879;DHT22;38747;53.140;6.498;2024-02-15T06:00:27;11.20;99.90
52879;DHT22;38747;53.140;6.498;2024-02-15T06:02:55;11.30;99.90
52879;DHT22;38747;53.140;6.498;2024-02-15T06:05:21;11.20;99.90
52879;DHT22;38747;53.140;6.498;2024-02-15T06:07:47;11.20;99.90
52879;DHT22;38747;53.140;6.498;2024-02-15T06:10:13;11.30;99.90
52879;DHT22;38747;53.140;6.498;2024-02-15T06:12:40;11.20;99.90
52879;DHT22;38747;53.140;6.498;2024-02-15T06:15:07;11.40;99.90
52879;DHT22;38747;53.140;6.498;2024-02-15T06:17:40;11.20;99.90
52879;DHT22;38747;53.140;6.498;2024-02-15T06:20:13;11.20;99.90
52879;DHT22;38747;53.140;6.498;2024-02-15T06:22:43;11.30;99.90
52879;DHT22;38747;53.140;6.498;2024-02-15T06:25:09;11.20;99.90
52879;DHT22;38747;53.140;6.498;2024-02-15T06:27:38;11.30;99.90
52879;DHT22;38747;53.140;6.498;2024-02-15T06:30:10;11.30;99.90
52879;DHT22;38747;53.140;6.498;2024-02-15T06:32:54;11.30;99.90
52879;DHT22;38747;53.140;6.498;2024-02-15T06:35:38;11.20;99.90
52879;DHT22;38747;53.140;6.498;2024-02-15T06:38:23;11.20;99.90
52879;DHT22;38747;53.140;6.498;2024-02-15T06:41:07;11.20;99.90
52879;DHT22;38747;53.140;6.498;2024-02-15T06:43:34;11.30;99.90
52879;DHT22;38747;53.140;6.498;2024-02-15T06:46:01;11.30;99.90
52879;DHT22;38747;53.140;6.498;2024-02-15T06:48:27;11.30;99.90
52879;DHT22;38747;53.140;6.498;2024-02-15T06:50:52;11.30;99.90
52879;DHT22;38747;53.140;6.498;2024-02-15T06:53:18;11.30;99.90
52879;DHT22;38747;53.140;6.498;2024-02-15T06:55:46;11.30;99.90
52879;DHT22;38747;53.140;6.498;2024-02-15T06:58:17;11.30;99.90
52879;DHT22;38747;53.140;6.498;2024-02-15T07:00:43;11.40;99.90
52879;DHT22;38747;53.140;6.498;2024-02-15T07:03:09;11.20;99.90
52879;DHT22;38747;53.140;6.498;2024-02-15T07:05:37;11.30;99.90
52879;DHT22;38747;53.140;6.498;2024-02-15T07:08:06;11.30;99.90
52879;DHT22;38747;53.140;6.498;2024-02-15T07:10:32;11.30;99.90
52879;DHT22;38747;53.140;6.498;2024-02-15T07:12:58;11.20;99.90
52879;DHT22;38747;53.140;6.498;2024-02-15T07:15:24;11.40;99.90
52879;DHT22;38747;53.140;6.498;2024-02-15T07:17:50;11.40;99.90
52879;DHT22;38747;53.140;6.498;2024-02-15T07:20:23;11.40;99.90
52879;DHT22;38747;53.140;6.498;2024-02-15T07:22:48;11.30;99.90
52879;DHT22;38747;53.140;6.498;2024-02-15T07:25:14;11.40;99.90
52879;DHT22;38747;53.140;6.498;2024-02-15T07:27:39;11.30;99.90
52879;DHT22;38747;53.140;6.498;2024-02-15T07:30:06;11.40;99.90
52879;DHT22;38747;53.140;6.498;2024-02-15T07:32:34;11.40;99.90
52879;DHT22;38747;53.140;6.498;2024-02-15T07:35:01;11.30;99.90
52879;DHT22;38747;53.140;6.498;2024-02-15T07:37:26;11.40;99.90
52879;DHT22;38747;53.140;6.498;2024-02-15T07:39:52;11.30;99.90
52879;DHT22;38747;53.140;6.498;2024-02-15T07:42:18;11.30;99.90
52879;DHT22;38747;53.140;6.498;2024-02-15T07:44:44;11.40;99.90
52879;DHT22;38747;53.140;6.498;2024-02-15T07:47:09;11.40;99.90
52879;DHT22;38747;53.140;6.498;2024-02-15T07:49:36;11.40;99.90
52879;DHT22;38747;53.140;6.498;2024-02-15T07:52:02;11.30;99.90
52879;DHT22;38747;53.140;6.498;2024-02-15T07:54:30;11.30;99.90
52879;DHT22;38747;53.140;6.498;2024-02-15T07:56:56;11.40;99.90
52879;DHT22;38747;53.140;6.498;2024-02-15T07:59:23;11.30;99.90
52879;DHT22;38747;53.140;6.498;2024-02-15T08:01:49;11.30;99.90
52879;DHT22;38747;53.140;6.498;2024-02-15T08:04:19;11.30;99.90
52879;DHT22;38747;53.140;6.498;2024-02-15T08:06:45;11.30;99.90
52879;DHT22;38747;53.140;6.498;2024-02-15T08:09:11;11.40;99.90
52879;DHT22;38747;53.140;6.498;2024-02-15T08:11:40;11.40;99.90
52879;DHT22;38747;53.140;6.498;2024-02-15T08:14:06;11.40;99.90
52879;DHT22;38747;53.140;6.498;2024-02-15T08:16:35;11.40;99.90
52879;DHT22;38747;53.140;6.498;2024-02-15T08:19:01;11.40;99.90
52879;DHT22;38747;53.140;6.498;2024-02-15T08:21:31;11.30;99.90
52879;DHT22;38747;53.140;6.498;2024-02-15T08:24:03;11.30;99.90
52879;DHT22;38747;53.140;6.498;2024-02-15T08:26:33;11.40;99.90
52879;DHT22;38747;53.140;6.498;2024-02-15T08:28:58;11.30;99.90
52879;DHT22;38747;53.140;6.498;2024-02-15T08:31:24;11.40;99.90
52879;DHT22;38747;53.140;6.498;2024-02-15T08:33:49;11.40;99.90
52879;DHT22;38747;53.140;6.498;2024-02-15T08:36:15;11.30;99.90
52879;DHT22;38747;53.140;6.498;2024-02-15T08:38:41;11.30;99.90
52879;DHT22;38747;53.140;6.498;2024-02-15T08:41:07;11.50;99.90
52879;DHT22;38747;53.140;6.498;2024-02-15T08:43:34;11.30;99.90
52879;DHT22;38747;53.140;6.498;2024-02-15T08:46:00;11.40;99.90
52879;DHT22;38747;53.140;6.498;2024-02-15T08:48:26;11.40;99.90
52879;DHT22;38747;53.140;6.498;2024-02-15T08:50:52;11.30;99.90
52879;DHT22;38747;53.140;6.498;2024-02-15T08:53:17;11.50;99.90
52879;DHT22;38747;53.140;6.498;2024-02-15T08:55:47;11.50;99.90
52879;DHT22;38747;53.140;6.498;2024-02-15T08:58:13;11.40;99.90
52879;DHT22;38747;53.140;6.498;2024-02-15T09:00:39;11.40;99.90
52879;DHT22;38747;53.140;6.498;2024-02-15T09:03:10;11.50;99.90
52879;DHT22;38747;53.140;6.498;2024-02-15T09:05:36;11.50;99.90
52879;DHT22;38747;53.140;6.498;2024-02-15T09:08:01;11.50;99.90
52879;DHT22;38747;53.140;6.498;2024-02-15T09:10:30;11.50;99.90
52879;DHT22;38747;53.140;6.498;2024-02-15T09:12:56;11.50;99.90
52879;DHT22;38747;53.140;6.498;2024-02-15T09:15:22;11.50;99.90
52879;DHT22;38747;53.140;6.498;2024-02-15T09:17:48;11.40;99.90
52879;DHT22;38747;53.140;6.498;2024-02-15T09:20:17;11.50;99.90
52879;DHT22;38747;53.140;6.498;2024-02-15T09:22:52;11.50;99.90
52879;DHT22;38747;53.140;6.498;2024-02-15T09:25:20;11.50;99.90
52879;DHT22;38747;53.140;6.498;2024-02-15T09:27:49;11.60;99.90
52879;DHT22;38747;53.140;6.498;2024-02-15T09:30:16;11.50;99.90
52879;DHT22;38747;53.140;6.498;2024-02-15T09:32:42;11.60;99.90
52879;DHT22;38747;53.140;6.498;2024-02-15T09:35:10;11.70;99.90
52879;DHT22;38747;53.140;6.498;2024-02-15T09:37:47;11.60;99.90
52879;DHT22;38747;53.140;6.498;2024-02-15T09:40:17;11.70;99.90
52879;DHT22;38747;53.140;6.498;2024-02-15T09:42:47;11.70;99.90
52879;DHT22;38747;53.140;6.498;2024-02-15T09:45:13;11.70;99.90
52879;DHT22;38747;53.140;6.498;2024-02-15T09:47:43;11.80;99.90
52879;DHT22;38747;53.140;6.498;2024-02-15T09:50:14;11.90;99.90
52879;DHT22;38747;53.140;6.498;2024-02-15T09:52:42;11.90;99.90
52879;DHT22;38747;53.140;6.498;2024-02-15T09:55:09;11.90;99.90
52879;DHT22;38747;53.140;6.498;2024-02-15T09:57:47;11.80;99.90
52879;DHT22;38747;53.140;6.498;2024-02-15T10:00:13;11.80;99.90
52879;DHT22;38747;53.140;6.498;2024-02-15T10:02:50;11.90;99.90
52879;DHT22;38747;53.140;6.498;2024-02-15T10:05:18;12.00;99.90
52879;DHT22;38747;53.140;6.498;2024-02-15T10:07:45;11.90;99.90
52879;DHT22;38747;53.140;6.498;2024-02-15T10:10:29;11.90;99.90
52879;DHT22;38747;53.140;6.498;2024-02-15T10:12:55;11.90;99.90
52879;DHT22;38747;53.140;6.498;2024-02-15T10:15:33;12.10;99.90
52879;DHT22;38747;53.140;6.498;2024-02-15T10:18:04;12.00;99.90
52879;DHT22;38747;53.140;6.498;2024-02-15T10:20:32;12.10;99.90
52879;DHT22;38747;53.140;6.498;2024-02-15T10:25:28;12.10;99.90
52879;DHT22;38747;53.140;6.498;2024-02-15T10:28:05;12.00;99.90
52879;DHT22;38747;53.140;6.498;2024-02-15T10:30:34;12.10;99.90
52879;DHT22;38747;53.140;6.498;2024-02-15T10:33:01;12.10;99.90
52879;DHT22;38747;53.140;6.498;2024-02-15T10:35:27;12.00;99.90
52879;DHT22;38747;53.140;6.498;2024-02-15T10:38:11;12.20;99.90
52879;DHT22;38747;53.140;6.498;2024-02-15T10:40:40;12.10;99.90
52879;DHT22;38747;53.140;6.498;2024-02-15T10:43:10;12.20;99.90
52879;DHT22;38747;53.140;6.498;2024-02-15T10:45:39;12.20;99.90
52879;DHT22;38747;53.140;6.498;2024-02-15T10:48:10;12.30;99.90
52879;DHT22;38747;53.140;6.498;2024-02-15T10:50:36;12.30;99.90
52879;DHT22;38747;53.140;6.498;2024-02-15T10:56:12;12.20;99.90
52879;DHT22;38747;53.140;6.498;2024-02-15T10:58:51;12.30;99.90
52879;DHT22;38747;53.140;6.498;2024-02-15T11:01:21;12.30;99.90
52879;DHT22;38747;53.140;6.498;2024-02-15T11:04:00;12.40;99.90
52879;DHT22;38747;53.140;6.498;2024-02-15T11:06:30;12.30;99.90
52879;DHT22;38747;53.140;6.498;2024-02-15T11:08:58;12.30;99.90
52879;DHT22;38747;53.140;6.498;2024-02-15T11:11:25;12.40;99.90
52879;DHT22;38747;53.140;6.498;2024-02-15T11:14:24;12.40;99.90
52879;DHT22;38747;53.140;6.498;2024-02-15T11:16:50;12.50;99.90
52879;DHT22;38747;53.140;6.498;2024-02-15T11:22:01;12.70;99.90
52879;DHT22;38747;53.140;6.498;2024-02-15T11:24:31;12.60;99.90
52879;DHT22;38747;53.140;6.498;2024-02-15T11:27:03;12.60;99.90
52879;DHT22;38747;53.140;6.498;2024-02-15T11:35:11;12.60;99.90
52879;DHT22;38747;53.140;6.498;2024-02-15T11:40:59;12.60;99.90
52879;DHT22;38747;53.140;6.498;2024-02-15T11:46:19;12.60;99.90
52879;DHT22;38747;53.140;6.498;2024-02-15T11:48:48;12.70;99.90
52879;DHT22;38747;53.140;6.498;2024-02-15T11:51:30;12.70;99.90
52879;DHT22;38747;53.140;6.498;2024-02-15T11:54:06;12.60;99.90
52879;DHT22;38747;53.140;6.498;2024-02-15T11:59:12;12.70;99.90
52879;DHT22;38747;53.140;6.498;2024-02-15T12:01:44;12.60;99.90
52879;DHT22;38747;53.140;6.498;2024-02-15T12:04:29;12.70;99.90
52879;DHT22;38747;53.140;6.498;2024-02-15T12:07:17;12.60;99.90
52879;DHT22;38747;53.140;6.498;2024-02-15T12:10:01;12.60;99.90
52879;DHT22;38747;53.140;6.498;2024-02-15T12:12:52;12.70;99.90
52879;DHT22;38747;53.140;6.498;2024-02-15T12:15:36;12.50;99.90
52879;DHT22;38747;53.140;6.498;2024-02-15T12:18:20;12.60;99.90
52879;DHT22;38747;53.140;6.498;2024-02-15T12:21:05;12.50;99.90
52879;DHT22;38747;53.140;6.498;2024-02-15T12:23:33;12.50;99.90
52879;DHT22;38747;53.140;6.498;2024-02-15T12:26:01;12.50;99.90
52879;DHT22;38747;53.140;6.498;2024-02-15T12:28:29;12.50;99.90
52879;DHT22;38747;53.140;6.498;2024-02-15T12:30:55;12.50;99.90
52879;DHT22;38747;53.140;6.498;2024-02-15T12:33:24;12.50;99.90
52879;DHT22;38747;53.140;6.498;2024-02-15T12:35:50;12.50;99.90
52879;DHT22;38747;53.140;6.498;2024-02-15T12:38:16;12.40;99.90
52879;DHT22;38747;53.140;6.498;2024-02-15T12:40:42;12.40;99.90
52879;DHT22;38747;53.140;6.498;2024-02-15T12:43:10;12.50;99.90
52879;DHT22;38747;53.140;6.498;2024-02-15T12:45:36;12.50;99.90
52879;DHT22;38747;53.140;6.498;2024-02-15T12:48:06;12.40;99.90
52879;DHT22;38747;53.140;6.498;2024-02-15T12:50:33;12.50;99.90
52879;DHT22;38747;53.140;6.498;2024-02-15T12:53:02;12.50;99.90
52879;DHT22;38747;53.140;6.498;2024-02-15T12:55:32;12.50;99.90
52879;DHT22;38747;53.140;6.498;2024-02-15T12:58:12;12.50;99.90
52879;DHT22;38747;53.140;6.498;2024-02-15T13:00:39;12.40;99.90
52879;DHT22;38747;53.140;6.498;2024-02-15T13:03:07;12.40;99.90
52879;DHT22;38747;53.140;6.498;2024-02-15T13:05:37;12.40;99.90
52879;DHT22;38747;53.140;6.498;2024-02-15T13:08:03;12.40;99.90
52879;DHT22;38747;53.140;6.498;2024-02-15T13:10:30;12.50;99.90
52879;DHT22;38747;53.140;6.498;2024-02-15T13:12:57;12.50;99.90
52879;DHT22;38747;53.140;6.498;2024-02-15T13:15:24;12.40;99.90
52879;DHT22;38747;53.140;6.498;2024-02-15T13:17:56;12.50;99.90
52879;DHT22;38747;53.140;6.498;2024-02-15T13:20:22;12.50;99.90
52879;DHT22;38747;53.140;6.498;2024-02-15T13:23:10;12.40;99.90
52879;DHT22;38747;53.140;6.498;2024-02-15T13:25:50;12.60;99.90
52879;DHT22;38747;53.140;6.498;2024-02-15T13:28:17;12.40;99.90
52879;DHT22;38747;53.140;6.498;2024-02-15T13:30:43;12.50;99.90
52879;DHT22;38747;53.140;6.498;2024-02-15T13:33:11;12.40;99.90
52879;DHT22;38747;53.140;6.498;2024-02-15T13:35:36;12.40;99.90
52879;DHT22;38747;53.140;6.498;2024-02-15T13:38:02;12.50;99.90
52879;DHT22;38747;53.140;6.498;2024-02-15T13:40:29;12.40;99.90
52879;DHT22;38747;53.140;6.498;2024-02-15T13:42:58;12.30;99.90
52879;DHT22;38747;53.140;6.498;2024-02-15T13:45:38;12.30;99.90
52879;DHT22;38747;53.140;6.498;2024-02-15T13:48:05;12.40;99.90
52879;DHT22;38747;53.140;6.498;2024-02-15T13:50:32;12.40;99.90
52879;DHT22;38747;53.140;6.498;2024-02-15T13:52:58;12.40;99.90
52879;DHT22;38747;53.140;6.498;2024-02-15T13:55:25;12.50;99.90
52879;DHT22;38747;53.140;6.498;2024-02-15T13:57:55;12.40;99.90
52879;DHT22;38747;53.140;6.498;2024-02-15T14:00:22;12.40;99.90
52879;DHT22;38747;53.140;6.498;2024-02-15T14:02:52;12.40;99.90
52879;DHT22;38747;53.140;6.498;2024-02-15T14:05:19;12.50;99.90
52879;DHT22;38747;53.140;6.498;2024-02-15T14:08:10;12.30;99.90
52879;DHT22;38747;53.140;6.498;2024-02-15T14:10:36;12.30;99.90
52879;DHT22;38747;53.140;6.498;2024-02-15T14:13:02;12.40;99.90
52879;DHT22;38747;53.140;6.498;2024-02-15T14:15:33;12.40;99.90
52879;DHT22;38747;53.140;6.498;2024-02-15T14:18:05;12.50;99.90
52879;DHT22;38747;53.140;6.498;2024-02-15T14:20:31;12.40;99.90
52879;DHT22;38747;53.140;6.498;2024-02-15T14:22:58;12.40;99.90
52879;DHT22;38747;53.140;6.498;2024-02-15T14:25:24;12.50;99.90
52879;DHT22;38747;53.140;6.498;2024-02-15T14:27:53;12.50;99.90
52879;DHT22;38747;53.140;6.498;2024-02-15T14:30:19;12.40;99.90
52879;DHT22;38747;53.140;6.498;2024-02-15T14:33:03;12.40;99.90
52879;DHT22;38747;53.140;6.498;2024-02-15T14:35:33;12.40;99.90
52879;DHT22;38747;53.140;6.498;2024-02-15T14:38:07;12.40;99.90
52879;DHT22;38747;53.140;6.498;2024-02-15T14:40:43;12.50;99.90
52879;DHT22;38747;53.140;6.498;2024-02-15T14:43:11;12.40;99.90
52879;DHT22;38747;53.140;6.498;2024-02-15T14:45:38;12.30;99.90
52879;DHT22;38747;53.140;6.498;2024-02-15T14:48:06;12.40;99.90
52879;DHT22;38747;53.140;6.498;2024-02-15T14:50:38;12.40;99.90
52879;DHT22;38747;53.140;6.498;2024-02-15T14:53:04;12.40;99.90
52879;DHT22;38747;53.140;6.498;2024-02-15T14:55:30;12.30;99.90
52879;DHT22;38747;53.140;6.498;2024-02-15T14:57:58;12.30;99.90
52879;DHT22;38747;53.140;6.498;2024-02-15T15:00:23;12.40;99.90
52879;DHT22;38747;53.140;6.498;2024-02-15T15:02:52;12.40;99.90
52879;DHT22;38747;53.140;6.498;2024-02-15T15:05:18;12.30;99.90
52879;DHT22;38747;53.140;6.498;2024-02-15T15:08:04;12.50;99.90
52879;DHT22;38747;53.140;6.498;2024-02-15T15:10:48;12.50;99.90
52879;DHT22;38747;53.140;6.498;2024-02-15T15:13:33;12.50;99.90
52879;DHT22;38747;53.140;6.498;2024-02-15T15:15:59;12.50;99.90
52879;DHT22;38747;53.140;6.498;2024-02-15T15:18:26;12.50;99.90
52879;DHT22;38747;53.140;6.498;2024-02-15T15:20:51;12.50;99.90
52879;DHT22;38747;53.140;6.498;2024-02-15T15:23:17;12.60;99.90
52879;DHT22;38747;53.140;6.498;2024-02-15T15:25:43;12.50;99.90
52879;DHT22;38747;53.140;6.498;2024-02-15T15:28:09;12.40;99.90
52879;DHT22;38747;53.140;6.498;2024-02-15T15:30:35;12.60;99.90
52879;DHT22;38747;53.140;6.498;2024-02-15T15:33:03;12.60;99.90
52879;DHT22;38747;53.140;6.498;2024-02-15T15:35:29;12.60;99.90
52879;DHT22;38747;53.140;6.498;2024-02-15T15:37:56;12.50;99.90
52879;DHT22;38747;53.140;6.498;2024-02-15T15:40:23;12.60;99.90
52879;DHT22;38747;53.140;6.498;2024-02-15T15:42:48;12.60;99.90
52879;DHT22;38747;53.140;6.498;2024-02-15T15:45:14;12.40;99.90
52879;DHT22;38747;53.140;6.498;2024-02-15T15:47:41;12.40;99.90
52879;DHT22;38747;53.140;6.498;2024-02-15T15:50:08;12.60;99.90
52879;DHT22;38747;53.140;6.498;2024-02-15T15:52:33;12.50;99.90
52879;DHT22;38747;53.140;6.498;2024-02-15T15:55:00;12.50;99.90
52879;DHT22;38747;53.140;6.498;2024-02-15T15:57:26;12.60;99.90
52879;DHT22;38747;53.140;6.498;2024-02-15T15:59:51;12.50;99.90
52879;DHT22;38747;53.140;6.498;2024-02-15T16:02:17;12.40;99.90